sensor_id;sensor_type;location;lat;lon;timestamp;temperature;humidity
27413;DHT22;14871;52.702;5.230;2023-04-25T00:00:29;10.10;99.90
27413;DHT22;14871;52.702;5.230;2023-04-25T00:02:55;10.10;99.90
27413;DHT22;14871;52.702;5.230;2023-04-25T00:05:23;10.10;99.90
27413;DHT22;14871;52.702;5.230;2023-04-25T00:07:50;10.00;99.90
27413;DHT22;14871;52.702;5.230;2023-04-25T00:10:16;9.90;99.90
27413;DHT22;14871;52.702;5.230;2023-04-25T00:12:42;9.90;99.90
27413;DHT22;14871;52.702;5.230;2023-04-25T00:15:08;9.80;99.90
27413;DHT22;14871;52.702;5.230;2023-04-25T00:17:35;10.00;99.90
27413;DHT22;14871;52.702;5.230;2023-04-25T00:20:02;9.90;99.90
27413;DHT22;14871;52.702;5.230;2023-04-25T00:22:32;9.90;99.90
27413;DHT22;14871;52.702;5.230;2023-04-25T00:25:00;9.80;99.90
27413;DHT22;14871;52.702;5.230;2023-04-25T00:27:26;9.90;99.90
27413;DHT22;14871;52.702;5.230;2023-04-25T00:29:53;10.00;99.90
27413;DHT22;14871;52.702;5.230;2023-04-25T00:32:19;10.00;99.90
27413;DHT22;14871;52.702;5.230;2023-04-25T00:34:45;9.90;99.90
27413;DHT22;14871;52.702;5.230;2023-04-25T00:37:11;10.00;99.90
27413;DHT22;14871;52.702;5.230;2023-04-25T00:39:38;10.00;99.90
27413;DHT22;14871;52.702;5.230;2023-04-25T00:42:05;9.90;99.90
27413;DHT22;14871;52.702;5.230;2023-04-25T00:44:31;9.90;99.90
27413;DHT22;14871;52.702;5.230;2023-04-25T00:46:58;10.00;99.90
27413;DHT22;14871;52.702;5.230;2023-04-25T00:49:23;10.00;99.90
27413;DHT22;14871;52.702;5.230;2023-04-25T00:51:50;9.90;99.90
27413;DHT22;14871;52.702;5.230;2023-04-25T00:54:16;9.90;99.90
27413;DHT22;14871;52.702;5.230;2023-04-25T00:56:42;9.90;99.90
27413;DHT22;14871;52.702;5.230;2023-04-25T00:59:12;10.00;99.90
27413;DHT22;14871;52.702;5.230;2023-04-25T01:01:39;9.90;99.90
27413;DHT22;14871;52.702;5.230;2023-04-25T01:04:04;9.80;99.90
27413;DHT22;14871;52.702;5.230;2023-04-25T01:06:31;9.80;99.90
27413;DHT22;14871;52.702;5.230;2023-04-25T01:08:59;9.80;99.90
27413;DHT22;14871;52.702;5.230;2023-04-25T01:11:25;9.80;99.90
27413;DHT22;14871;52.702;5.230;2023-04-25T01:13:51;9.70;99.90
27413;DHT22;14871;52.702;5.230;2023-04-25T01:16:17;9.60;99.90
27413;DHT22;14871;52.702;5.230;2023-04-25T01:18:43;9.60;99.90
27413;DHT22;14871;52.702;5.230;2023-04-25T01:21:10;9.60;99.90
27413;DHT22;14871;52.702;5.230;2023-04-25T01:23:38;9.70;99.90
27413;DHT22;14871;52.702;5.230;2023-04-25T01:26:04;9.70;99.90
27413;DHT22;14871;52.702;5.230;2023-04-25T01:28:33;9.60;99.90
27413;DHT22;14871;52.702;5.230;2023-04-25T01:31:00;9.60;99.90
27413;DHT22;14871;52.702;5.230;2023-04-25T01:33:26;9.70;99.90
27413;DHT22;14871;52.702;5.230;2023-04-25T01:35:52;9.70;99.90
27413;DHT22;14871;52.702;5.230;2023-04-25T01:38:18;9.80;99.90
27413;DHT22;14871;52.702;5.230;2023-04-25T01:40:45;9.70;99.90
27413;DHT22;14871;52.702;5.230;2023-04-25T01:43:12;9.70;99.90
27413;DHT22;14871;52.702;5.230;2023-04-25T01:45:40;9.80;99.90
27413;DHT22;14871;52.702;5.230;2023-04-25T01:48:11;9.70;99.90
27413;DHT22;14871;52.702;5.230;2023-04-25T01:50:38;9.70;99.90
27413;DHT22;14871;52.702;5.230;2023-04-25T01:53:09;9.70;99.90
27413;DHT22;14871;52.702;5.230;2023-04-25T01:55:35;9.80;99.90
27413;DHT22;14871;52.702;5.230;2023-04-25T01:58:02;9.70;99.90
27413;DHT22;14871;52.702;5.230;2023-04-25T02:00:28;9.80;99.90
27413;DHT22;14871;52.702;5.230;2023-04-25T02:02:58;9.80;99.90
27413;DHT22;14871;52.702;5.230;2023-04-25T02:05:24;9.80;99.90
27413;DHT22;14871;52.702;5.230;2023-04-25T02:07:50;9.70;99.90
27413;DHT22;14871;52.702;5.230;2023-04-25T02:10:16;9.70;99.90
27413;DHT22;14871;52.702;5.230;2023-04-25T02:12:41;9.80;99.90
27413;DHT22;14871;52.702;5.230;2023-04-25T02:15:08;9.80;99.90
27413;DHT22;14871;52.702;5.230;2023-04-25T02:17:34;9.80;99.90
27413;DHT22;14871;52.702;5.230;2023-04-25T02:20:00;9.80;99.90
27413;DHT22;14871;52.702;5.230;2023-04-25T02:22:25;9.70;99.90
27413;DHT22;14871;52.702;5.230;2023-04-25T02:24:54;9.60;99.90
27413;DHT22;14871;52.702;5.230;2023-04-25T02:27:20;9.60;99.90
27413;DHT22;14871;52.702;5.230;2023-04-25T02:29:46;9.60;99.90
27413;DHT22;14871;52.702;5.230;2023-04-25T02:32:11;9.50;99.90
27413;DHT22;14871;52.702;5.230;2023-04-25T02:34:37;9.70;99.90
27413;DHT22;14871;52.702;5.230;2023-04-25T02:37:03;9.70;99.90
27413;DHT22;14871;52.702;5.230;2023-04-25T02:39:29;9.60;99.90
27413;DHT22;14871;52.702;5.230;2023-04-25T02:41:55;9.60;99.90
27413;DHT22;14871;52.702;5.230;2023-04-25T02:44:21;9.50;99.90
27413;DHT22;14871;52.702;5.230;2023-04-25T02:46:47;9.40;99.90
27413;DHT22;14871;52.702;5.230;2023-04-25T02:49:13;9.30;99.90
27413;DHT22;14871;52.702;5.230;2023-04-25T02:51:39;9.30;99.90
27413;DHT22;14871;52.702;5.230;2023-04-25T02:54:05;9.30;99.90
27413;DHT22;14871;52.702;5.230;2023-04-25T02:56:32;9.10;99.90
27413;DHT22;14871;52.702;5.230;2023-04-25T02:58:57;9.00;99.90
27413;DHT22;14871;52.702;5.230;2023-04-25T03:01:23;9.00;99.90
27413;DHT22;14871;52.702;5.230;2023-04-25T03:03:49;9.00;99.90
27413;DHT22;14871;52.702;5.230;2023-04-25T03:06:15;9.00;99.90
27413;DHT22;14871;52.702;5.230;2023-04-25T03:08:41;9.00;99.90
27413;DHT22;14871;52.702;5.230;2023-04-25T03:11:07;9.00;99.90
27413;DHT22;14871;52.702;5.230;2023-04-25T03:13:33;9.00;99.90
27413;DHT22;14871;52.702;5.230;2023-04-25T03:15:59;9.20;99.90
27413;DHT22;14871;52.702;5.230;2023-04-25T03:18:25;9.30;99.90
27413;DHT22;14871;52.702;5.230;2023-04-25T03:20:51;9.20;99.90
27413;DHT22;14871;52.702;5.230;2023-04-25T03:23:16;9.20;99.90
27413;DHT22;14871;52.702;5.230;2023-04-25T03:25:42;9.30;99.90
27413;DHT22;14871;52.702;5.230;2023-04-25T03:28:08;9.30;99.90
27413;DHT22;14871;52.702;5.230;2023-04-25T03:30:34;9.30;99.90
27413;DHT22;14871;52.702;5.230;2023-04-25T03:33:00;9.30;99.90
27413;DHT22;14871;52.702;5.230;2023-04-25T03:35:26;9.30;99.90
27413;DHT22;14871;52.702;5.230;2023-04-25T03:37:52;9.40;99.90
27413;DHT22;14871;52.702;5.230;2023-04-25T03:40:18;9.30;99.90
27413;DHT22;14871;52.702;5.230;2023-04-25T03:42:44;9.40;99.90
27413;DHT22;14871;52.702;5.230;2023-04-25T03:45:10;9.40;99.90
27413;DHT22;14871;52.702;5.230;2023-04-25T03:47:36;9.40;99.90
27413;DHT22;14871;52.702;5.230;2023-04-25T03:50:03;9.30;99.90
27413;DHT22;14871;52.702;5.230;2023-04-25T03:52:29;9.30;99.90
27413;DHT22;14871;52.702;5.230;2023-04-25T03:54:55;9.30;99.90
27413;DHT22;14871;52.702;5.230;2023-04-25T03:57:21;9.30;99.90
27413;DHT22;14871;52.702;5.230;2023-04-25T03:59:47;9.40;99.90
27413;DHT22;14871;52.702;5.230;2023-04-25T04:02:13;9.30;99.90
27413;DHT22;14871;52.702;5.230;2023-04-25T04:04:39;9.30;99.90
27413;DHT22;14871;52.702;5.230;2023-04-25T04:07:05;9.20;99.90
27413;DHT22;14871;52.702;5.230;2023-04-25T04:09:31;9.20;99.90
27413;DHT22;14871;52.702;5.230;2023-04-25T04:11:57;9.20;99.90
27413;DHT22;14871;52.702;5.230;2023-04-25T04:14:23;9.00;99.90
27413;DHT22;14871;52.702;5.230;2023-04-25T04:16:50;9.10;99.90
27413;DHT22;14871;52.702;5.230;2023-04-25T04:19:16;9.20;99.90
27413;DHT22;14871;52.702;5.230;2023-04-25T04:21:42;9.10;99.90
27413;DHT22;14871;52.702;5.230;2023-04-25T04:24:07;9.10;99.90
27413;DHT22;14871;52.702;5.230;2023-04-25T04:26:33;9.00;99.90
27413;DHT22;14871;52.702;5.230;2023-04-25T04:29:00;8.90;99.90
27413;DHT22;14871;52.702;5.230;2023-04-25T04:31:26;9.00;99.90
27413;DHT22;14871;52.702;5.230;2023-04-25T04:33:52;8.90;99.90
27413;DHT22;14871;52.702;5.230;2023-04-25T04:36:18;9.00;99.90
27413;DHT22;14871;52.702;5.230;2023-04-25T04:38:48;9.00;99.90
27413;DHT22;14871;52.702;5.230;2023-04-25T04:41:14;9.10;99.90
27413;DHT22;14871;52.702;5.230;2023-04-25T04:43:40;9.10;99.90
27413;DHT22;14871;52.702;5.230;2023-04-25T04:46:07;9.10;99.90
27413;DHT22;14871;52.702;5.230;2023-04-25T04:48:33;9.10;99.90
27413;DHT22;14871;52.702;5.230;2023-04-25T04:51:00;9.00;99.90
27413;DHT22;14871;52.702;5.230;2023-04-25T04:53:27;8.90;99.90
27413;DHT22;14871;52.702;5.230;2023-04-25T04:55:53;9.00;99.90
27413;DHT22;14871;52.702;5.230;2023-04-25T04:58:19;9.00;99.90
27413;DHT22;14871;52.702;5.230;2023-04-25T05:00:45;9.00;99.90
27413;DHT22;14871;52.702;5.230;2023-04-25T05:03:12;9.00;99.90
27413;DHT22;14871;52.702;5.230;2023-04-25T05:05:38;9.10;99.90
27413;DHT22;14871;52.702;5.230;2023-04-25T05:08:06;9.00;99.90
27413;DHT22;14871;52.702;5.230;2023-04-25T05:10:32;9.10;99.90
27413;DHT22;14871;52.702;5.230;2023-04-25T05:12:58;9.10;99.90
27413;DHT22;14871;52.702;5.230;2023-04-25T05:15:23;9.10;99.90
27413;DHT22;14871;52.702;5.230;2023-04-25T05:17:49;9.20;99.90
27413;DHT22;14871;52.702;5.230;2023-04-25T05:20:15;9.20;99.90
27413;DHT22;14871;52.702;5.230;2023-04-25T05:22:41;9.20;99.90
27413;DHT22;14871;52.702;5.230;2023-04-25T05:25:08;9.30;99.90
27413;DHT22;14871;52.702;5.230;2023-04-25T05:27:35;9.50;99.90
27413;DHT22;14871;52.702;5.230;2023-04-25T05:30:01;9.40;99.90
27413;DHT22;14871;52.702;5.230;2023-04-25T05:32:26;9.40;99.90
27413;DHT22;14871;52.702;5.230;2023-04-25T05:34:52;9.40;99.90
27413;DHT22;14871;52.702;5.230;2023-04-25T05:37:18;9.50;99.90
27413;DHT22;14871;52.702;5.230;2023-04-25T05:39:44;9.60;99.90
27413;DHT22;14871;52.702;5.230;2023-04-25T05:42:10;9.60;99.90
27413;DHT22;14871;52.702;5.230;2023-04-25T05:44:36;9.60;99.90
27413;DHT22;14871;52.702;5.230;2023-04-25T05:47:01;9.60;99.90
27413;DHT22;14871;52.702;5.230;2023-04-25T05:49:29;9.60;99.90
27413;DHT22;14871;52.702;5.230;2023-04-25T05:51:55;9.60;99.90
27413;DHT22;14871;52.702;5.230;2023-04-25T05:54:21;9.70;99.90
27413;DHT22;14871;52.702;5.230;2023-04-25T05:56:47;9.70;99.90
27413;DHT22;14871;52.702;5.230;2023-04-25T05:59:13;9.80;99.90
27413;DHT22;14871;52.702;5.230;2023-04-25T06:01:39;9.80;99.90
27413;DHT22;14871;52.702;5.230;2023-04-25T06:04:05;9.80;99.90
27413;DHT22;14871;52.702;5.230;2023-04-25T06:06:31;9.80;99.90
27413;DHT22;14871;52.702;5.230;2023-04-25T06:08:57;9.70;99.90
27413;DHT22;14871;52.702;5.230;2023-04-25T06:11:24;9.60;99.90
27413;DHT22;14871;52.702;5.230;2023-04-25T06:13:50;9.70;99.90
27413;DHT22;14871;52.702;5.230;2023-04-25T06:16:16;9.70;99.90
27413;DHT22;14871;52.702;5.230;2023-04-25T06:18:41;9.70;99.90
27413;DHT22;14871;52.702;5.230;2023-04-25T06:21:08;9.60;99.90
27413;DHT22;14871;52.702;5.230;2023-04-25T06:23:34;9.70;99.90
27413;DHT22;14871;52.702;5.230;2023-04-25T06:26:00;9.70;99.90
27413;DHT22;14871;52.702;5.230;2023-04-25T06:28:27;9.80;99.90
27413;DHT22;14871;52.702;5.230;2023-04-25T06:30:53;9.80;99.90
27413;DHT22;14871;52.702;5.230;2023-04-25T06:33:19;9.80;99.90
27413;DHT22;14871;52.702;5.230;2023-04-25T06:35:47;9.90;99.90
27413;DHT22;14871;52.702;5.230;2023-04-25T06:38:13;10.00;99.90
27413;DHT22;14871;52.702;5.230;2023-04-25T06:40:39;10.10;99.90
27413;DHT22;14871;52.702;5.230;2023-04-25T06:43:05;10.00;99.90
27413;DHT22;14871;52.702;5.230;2023-04-25T06:45:31;10.00;99.90
27413;DHT22;14871;52.702;5.230;2023-04-25T06:47:57;10.00;99.90
27413;DHT22;14871;52.702;5.230;2023-04-25T06:50:23;10.00;99.90
27413;DHT22;14871;52.702;5.230;2023-04-25T06:52:49;10.00;99.90
27413;DHT22;14871;52.702;5.230;2023-04-25T06:55:14;10.10;99.90
27413;DHT22;14871;52.702;5.230;2023-04-25T06:57:40;10.00;99.90
27413;DHT22;14871;52.702;5.230;2023-04-25T07:00:07;9.90;99.90
27413;DHT22;14871;52.702;5.230;2023-04-25T07:02:36;10.00;99.90
27413;DHT22;14871;52.702;5.230;2023-04-25T07:05:02;10.10;99.90
27413;DHT22;14871;52.702;5.230;2023-04-25T07:07:30;10.10;99.90
27413;DHT22;14871;52.702;5.230;2023-04-25T07:09:56;10.20;99.90
27413;DHT22;14871;52.702;5.230;2023-04-25T07:12:22;10.20;99.90
27413;DHT22;14871;52.702;5.230;2023-04-25T07:14:48;10.30;99.90
27413;DHT22;14871;52.702;5.230;2023-04-25T07:17:13;10.40;99.90
27413;DHT22;14871;52.702;5.230;2023-04-25T07:19:39;10.40;99.90
27413;DHT22;14871;52.702;5.230;2023-04-25T07:22:06;10.40;99.90
27413;DHT22;14871;52.702;5.230;2023-04-25T07:24:32;10.40;99.90
27413;DHT22;14871;52.702;5.230;2023-04-25T07:26:58;10.70;99.90
27413;DHT22;14871;52.702;5.230;2023-04-25T07:29:24;10.80;99.90
27413;DHT22;14871;52.702;5.230;2023-04-25T07:31:50;10.90;99.90
27413;DHT22;14871;52.702;5.230;2023-04-25T07:34:15;11.20;99.90
27413;DHT22;14871;52.702;5.230;2023-04-25T07:36:41;11.40;99.90
27413;DHT22;14871;52.702;5.230;2023-04-25T07:39:07;11.60;99.90
27413;DHT22;14871;52.702;5.230;2023-04-25T07:41:34;11.70;99.90
27413;DHT22;14871;52.702;5.230;2023-04-25T07:44:01;11.90;99.90
27413;DHT22;14871;52.702;5.230;2023-04-25T07:46:26;12.20;99.90
27413;DHT22;14871;52.702;5.230;2023-04-25T07:48:52;12.20;99.90
27413;DHT22;14871;52.702;5.230;2023-04-25T07:51:18;12.50;99.90
27413;DHT22;14871;52.702;5.230;2023-04-25T07:53:45;12.70;99.90
27413;DHT22;14871;52.702;5.230;2023-04-25T07:56:12;13.10;99.90
27413;DHT22;14871;52.702;5.230;2023-04-25T07:58:37;13.30;99.90
27413;DHT22;14871;52.702;5.230;2023-04-25T08:01:03;13.40;99.90
27413;DHT22;14871;52.702;5.230;2023-04-25T08:03:29;13.50;99.60
27413;DHT22;14871;52.702;5.230;2023-04-25T08:05:55;13.50;99.30
27413;DHT22;14871;52.702;5.230;2023-04-25T08:08:21;13.70;99.20
27413;DHT22;14871;52.702;5.230;2023-04-25T08:10:46;13.80;99.40
27413;DHT22;14871;52.702;5.230;2023-04-25T08:13:14;14.10;99.30
27413;DHT22;14871;52.702;5.230;2023-04-25T08:15:39;13.90;99.90
27413;DHT22;14871;52.702;5.230;2023-04-25T08:18:05;13.50;99.90
27413;DHT22;14871;52.702;5.230;2023-04-25T08:20:31;12.90;99.90
27413;DHT22;14871;52.702;5.230;2023-04-25T08:22:57;12.50;99.90
27413;DHT22;14871;52.702;5.230;2023-04-25T08:25:23;12.20;99.90
27413;DHT22;14871;52.702;5.230;2023-04-25T08:27:49;11.90;99.90
27413;DHT22;14871;52.702;5.230;2023-04-25T08:30:14;11.70;99.90
27413;DHT22;14871;52.702;5.230;2023-04-25T08:32:40;11.70;99.90
27413;DHT22;14871;52.702;5.230;2023-04-25T08:35:06;11.70;99.90
27413;DHT22;14871;52.702;5.230;2023-04-25T08:37:32;11.70;99.90
27413;DHT22;14871;52.702;5.230;2023-04-25T08:39:58;12.00;99.90
27413;DHT22;14871;52.702;5.230;2023-04-25T08:42:24;12.20;99.90
27413;DHT22;14871;52.702;5.230;2023-04-25T08:44:53;12.50;99.90
27413;DHT22;14871;52.702;5.230;2023-04-25T08:47:22;12.90;99.90
27413;DHT22;14871;52.702;5.230;2023-04-25T08:49:48;13.30;99.90
27413;DHT22;14871;52.702;5.230;2023-04-25T08:52:16;13.60;99.90
27413;DHT22;14871;52.702;5.230;2023-04-25T08:54:48;13.80;99.90
27413;DHT22;14871;52.702;5.230;2023-04-25T08:57:15;14.00;99.90
27413;DHT22;14871;52.702;5.230;2023-04-25T08:59:41;14.30;99.90
27413;DHT22;14871;52.702;5.230;2023-04-25T09:02:11;14.40;99.60
27413;DHT22;14871;52.702;5.230;2023-04-25T09:04:43;14.40;99.60
27413;DHT22;14871;52.702;5.230;2023-04-25T09:07:08;14.60;99.10
27413;DHT22;14871;52.702;5.230;2023-04-25T09:09:35;14.90;98.70
27413;DHT22;14871;52.702;5.230;2023-04-25T09:12:01;15.20;98.30
27413;DHT22;14871;52.702;5.230;2023-04-25T09:14:27;15.40;97.50
27413;DHT22;14871;52.702;5.230;2023-04-25T09:19:31;15.70;98.10
27413;DHT22;14871;52.702;5.230;2023-04-25T09:21:59;16.00;96.60
27413;DHT22;14871;52.702;5.230;2023-04-25T09:24:42;16.10;97.00
27413;DHT22;14871;52.702;5.230;2023-04-25T09:27:10;16.10;95.30
27413;DHT22;14871;52.702;5.230;2023-04-25T09:29:38;16.20;96.50
27413;DHT22;14871;52.702;5.230;2023-04-25T09:32:30;16.50;96.10
27413;DHT22;14871;52.702;5.230;2023-04-25T09:34:57;16.60;95.20
27413;DHT22;14871;52.702;5.230;2023-04-25T09:37:25;16.50;95.50
27413;DHT22;14871;52.702;5.230;2023-04-25T09:39:55;16.50;94.90
27413;DHT22;14871;52.702;5.230;2023-04-25T09:42:28;16.60;95.10
27413;DHT22;14871;52.702;5.230;2023-04-25T09:44:57;16.90;95.10
27413;DHT22;14871;52.702;5.230;2023-04-25T09:47:25;16.80;95.40
27413;DHT22;14871;52.702;5.230;2023-04-25T09:49:52;16.60;93.90
27413;DHT22;14871;52.702;5.230;2023-04-25T09:52:20;16.50;93.80
27413;DHT22;14871;52.702;5.230;2023-04-25T09:54:48;16.30;93.80
27413;DHT22;14871;52.702;5.230;2023-04-25T09:57:24;16.00;93.50
27413;DHT22;14871;52.702;5.230;2023-04-25T09:59:52;16.00;94.10
27413;DHT22;14871;52.702;5.230;2023-04-25T10:02:22;16.00;94.10
27413;DHT22;14871;52.702;5.230;2023-04-25T10:04:50;15.90;93.40
27413;DHT22;14871;52.702;5.230;2023-04-25T10:07:19;16.10;93.90
27413;DHT22;14871;52.702;5.230;2023-04-25T10:09:48;16.20;93.80
27413;DHT22;14871;52.702;5.230;2023-04-25T10:12:16;16.40;95.00
27413;DHT22;14871;52.702;5.230;2023-04-25T10:14:42;16.70;94.40
27413;DHT22;14871;52.702;5.230;2023-04-25T10:17:10;17.10;93.80
27413;DHT22;14871;52.702;5.230;2023-04-25T10:19:37;17.40;92.00
27413;DHT22;14871;52.702;5.230;2023-04-25T10:22:14;17.40;91.60
27413;DHT22;14871;52.702;5.230;2023-04-25T10:24:43;17.50;91.00
27413;DHT22;14871;52.702;5.230;2023-04-25T10:27:10;17.80;91.80
27413;DHT22;14871;52.702;5.230;2023-04-25T10:29:36;17.70;90.00
27413;DHT22;14871;52.702;5.230;2023-04-25T10:32:03;18.00;91.00
27413;DHT22;14871;52.702;5.230;2023-04-25T10:34:42;17.90;89.50
27413;DHT22;14871;52.702;5.230;2023-04-25T10:37:10;17.90;87.60
27413;DHT22;14871;52.702;5.230;2023-04-25T10:39:39;17.90;89.00
27413;DHT22;14871;52.702;5.230;2023-04-25T10:42:06;18.10;88.30
27413;DHT22;14871;52.702;5.230;2023-04-25T10:44:33;18.10;86.90
27413;DHT22;14871;52.702;5.230;2023-04-25T10:47:01;18.40;89.70
27413;DHT22;14871;52.702;5.230;2023-04-25T10:49:41;18.50;86.20
27413;DHT22;14871;52.702;5.230;2023-04-25T10:55:02;19.00;85.60
27413;DHT22;14871;52.702;5.230;2023-04-25T10:57:30;18.80;84.80
27413;DHT22;14871;52.702;5.230;2023-04-25T11:00:17;18.30;83.40
27413;DHT22;14871;52.702;5.230;2023-04-25T11:02:58;18.20;85.40
27413;DHT22;14871;52.702;5.230;2023-04-25T11:05:33;18.30;83.90
27413;DHT22;14871;52.702;5.230;2023-04-25T11:07:59;18.40;83.40
27413;DHT22;14871;52.702;5.230;2023-04-25T11:10:30;18.30;82.30
27413;DHT22;14871;52.702;5.230;2023-04-25T11:12:57;18.70;83.30
27413;DHT22;14871;52.702;5.230;2023-04-25T11:15:24;18.80;85.40
27413;DHT22;14871;52.702;5.230;2023-04-25T11:17:53;18.70;85.10
27413;DHT22;14871;52.702;5.230;2023-04-25T11:20:20;18.40;85.10
27413;DHT22;14871;52.702;5.230;2023-04-25T11:22:47;18.30;86.60
27413;DHT22;14871;52.702;5.230;2023-04-25T11:25:14;18.10;88.40
27413;DHT22;14871;52.702;5.230;2023-04-25T11:27:50;17.70;89.40
27413;DHT22;14871;52.702;5.230;2023-04-25T11:30:17;17.20;90.30
27413;DHT22;14871;52.702;5.230;2023-04-25T11:32:43;16.70;92.30
27413;DHT22;14871;52.702;5.230;2023-04-25T11:35:10;16.20;93.60
27413;DHT22;14871;52.702;5.230;2023-04-25T11:37:36;15.90;95.10
27413;DHT22;14871;52.702;5.230;2023-04-25T11:40:03;15.50;92.90
27413;DHT22;14871;52.702;5.230;2023-04-25T11:42:32;15.30;93.70
27413;DHT22;14871;52.702;5.230;2023-04-25T11:44:59;15.50;94.80
27413;DHT22;14871;52.702;5.230;2023-04-25T11:47:30;15.70;93.50
27413;DHT22;14871;52.702;5.230;2023-04-25T11:49:58;16.00;94.30
27413;DHT22;14871;52.702;5.230;2023-04-25T11:52:39;16.60;93.40
27413;DHT22;14871;52.702;5.230;2023-04-25T11:55:07;17.10;92.40
27413;DHT22;14871;52.702;5.230;2023-04-25T11:57:33;17.60;92.20
27413;DHT22;14871;52.702;5.230;2023-04-25T12:02:40;18.30;88.80
27413;DHT22;14871;52.702;5.230;2023-04-25T12:05:08;18.40;87.50
27413;DHT22;14871;52.702;5.230;2023-04-25T12:07:34;18.30;87.10
27413;DHT22;14871;52.702;5.230;2023-04-25T12:10:05;18.00;83.70
27413;DHT22;14871;52.702;5.230;2023-04-25T12:12:35;17.70;83.80
27413;DHT22;14871;52.702;5.230;2023-04-25T12:15:15;17.70;82.90
27413;DHT22;14871;52.702;5.230;2023-04-25T12:17:45;17.70;87.20
27413;DHT22;14871;52.702;5.230;2023-04-25T12:20:16;17.60;83.70
27413;DHT22;14871;52.702;5.230;2023-04-25T12:22:44;17.40;83.70
27413;DHT22;14871;52.702;5.230;2023-04-25T12:25:36;17.60;83.90
27413;DHT22;14871;52.702;5.230;2023-04-25T12:31:03;18.20;85.00
27413;DHT22;14871;52.702;5.230;2023-04-25T12:33:31;18.40;84.90
27413;DHT22;14871;52.702;5.230;2023-04-25T12:35:58;18.40;84.10
27413;DHT22;14871;52.702;5.230;2023-04-25T12:38:29;18.10;83.50
27413;DHT22;14871;52.702;5.230;2023-04-25T12:40:57;17.90;81.40
27413;DHT22;14871;52.702;5.230;2023-04-25T12:43:23;17.60;80.70
27413;DHT22;14871;52.702;5.230;2023-04-25T12:45:50;17.60;82.10
27413;DHT22;14871;52.702;5.230;2023-04-25T12:48:17;17.40;82.00
27413;DHT22;14871;52.702;5.230;2023-04-25T12:50:43;17.50;83.20
27413;DHT22;14871;52.702;5.230;2023-04-25T12:53:09;17.80;84.30
27413;DHT22;14871;52.702;5.230;2023-04-25T12:55:36;17.80;82.80
27413;DHT22;14871;52.702;5.230;2023-04-25T12:58:02;17.70;84.40
27413;DHT22;14871;52.702;5.230;2023-04-25T13:00:29;17.50;83.80
27413;DHT22;14871;52.702;5.230;2023-04-25T13:02:55;17.40;84.70
27413;DHT22;14871;52.702;5.230;2023-04-25T13:05:21;17.10;82.80
27413;DHT22;14871;52.702;5.230;2023-04-25T13:07:47;17.10;83.50
27413;DHT22;14871;52.702;5.230;2023-04-25T13:10:13;17.20;84.00
27413;DHT22;14871;52.702;5.230;2023-04-25T13:12:39;17.40;83.20
27413;DHT22;14871;52.702;5.230;2023-04-25T13:15:05;17.50;84.30
27413;DHT22;14871;52.702;5.230;2023-04-25T13:17:32;17.40;79.80
27413;DHT22;14871;52.702;5.230;2023-04-25T13:19:57;17.20;79.40
27413;DHT22;14871;52.702;5.230;2023-04-25T13:22:23;17.40;78.60
27413;DHT22;14871;52.702;5.230;2023-04-25T13:24:49;17.60;78.90
27413;DHT22;14871;52.702;5.230;2023-04-25T13:27:15;17.70;77.50
27413;DHT22;14871;52.702;5.230;2023-04-25T13:29:41;17.80;77.20
27413;DHT22;14871;52.702;5.230;2023-04-25T13:32:08;18.00;75.70
27413;DHT22;14871;52.702;5.230;2023-04-25T13:34:34;18.00;77.30
27413;DHT22;14871;52.702;5.230;2023-04-25T13:37:00;17.80;77.50
27413;DHT22;14871;52.702;5.230;2023-04-25T13:39:26;17.80;80.20
27413;DHT22;14871;52.702;5.230;2023-04-25T13:41:52;17.80;79.60
27413;DHT22;14871;52.702;5.230;2023-04-25T13:44:18;17.80;80.60
27413;DHT22;14871;52.702;5.230;2023-04-25T13:46:44;17.70;79.30
27413;DHT22;14871;52.702;5.230;2023-04-25T13:49:11;17.80;78.80
27413;DHT22;14871;52.702;5.230;2023-04-25T13:51:37;17.90;79.70
27413;DHT22;14871;52.702;5.230;2023-04-25T13:54:03;17.90;79.80
27413;DHT22;14871;52.702;5.230;2023-04-25T13:56:29;17.70;75.70
27413;DHT22;14871;52.702;5.230;2023-04-25T13:58:55;17.30;82.00
27413;DHT22;14871;52.702;5.230;2023-04-25T14:01:22;16.90;85.30
27413;DHT22;14871;52.702;5.230;2023-04-25T14:03:47;16.60;86.20
27413;DHT22;14871;52.702;5.230;2023-04-25T14:06:13;16.30;85.20
27413;DHT22;14871;52.702;5.230;2023-04-25T14:08:42;16.20;86.70
27413;DHT22;14871;52.702;5.230;2023-04-25T14:11:08;15.60;88.90
27413;DHT22;14871;52.702;5.230;2023-04-25T14:13:34;15.30;90.30
27413;DHT22;14871;52.702;5.230;2023-04-25T14:16:00;15.00;91.80
27413;DHT22;14871;52.702;5.230;2023-04-25T14:18:26;15.10;92.70
27413;DHT22;14871;52.702;5.230;2023-04-25T14:20:52;15.20;91.30
27413;DHT22;14871;52.702;5.230;2023-04-25T14:23:18;15.10;92.40
27413;DHT22;14871;52.702;5.230;2023-04-25T14:25:43;14.90;90.30
27413;DHT22;14871;52.702;5.230;2023-04-25T14:28:10;14.80;91.40
27413;DHT22;14871;52.702;5.230;2023-04-25T14:30:36;14.60;91.70
27413;DHT22;14871;52.702;5.230;2023-04-25T14:33:02;14.60;91.20
27413;DHT22;14871;52.702;5.230;2023-04-25T14:35:27;14.70;92.40
27413;DHT22;14871;52.702;5.230;2023-04-25T14:37:54;14.70;92.00
27413;DHT22;14871;52.702;5.230;2023-04-25T14:40:19;14.50;91.30
27413;DHT22;14871;52.702;5.230;2023-04-25T14:42:48;14.70;92.60
27413;DHT22;14871;52.702;5.230;2023-04-25T14:45:15;15.10;92.80
27413;DHT22;14871;52.702;5.230;2023-04-25T14:47:42;15.20;91.00
27413;DHT22;14871;52.702;5.230;2023-04-25T14:50:08;15.30;88.50
27413;DHT22;14871;52.702;5.230;2023-04-25T14:52:34;15.20;88.20
27413;DHT22;14871;52.702;5.230;2023-04-25T14:55:00;15.20;85.50
27413;DHT22;14871;52.702;5.230;2023-04-25T14:57:31;15.30;84.80
27413;DHT22;14871;52.702;5.230;2023-04-25T14:59:57;15.60;85.80
27413;DHT22;14871;52.702;5.230;2023-04-25T15:02:24;15.90;87.70
27413;DHT22;14871;52.702;5.230;2023-04-25T15:04:50;16.20;88.70
27413;DHT22;14871;52.702;5.230;2023-04-25T15:07:16;16.40;87.30
27413;DHT22;14871;52.702;5.230;2023-04-25T15:09:41;16.40;86.70
27413;DHT22;14871;52.702;5.230;2023-04-25T15:12:08;16.30;84.90
27413;DHT22;14871;52.702;5.230;2023-04-25T15:14:34;16.50;85.80
27413;DHT22;14871;52.702;5.230;2023-04-25T15:17:00;16.50;86.10
27413;DHT22;14871;52.702;5.230;2023-04-25T15:19:26;16.50;84.90
27413;DHT22;14871;52.702;5.230;2023-04-25T15:21:52;16.50;85.50
27413;DHT22;14871;52.702;5.230;2023-04-25T15:24:19;16.50;85.70
27413;DHT22;14871;52.702;5.230;2023-04-25T15:26:44;16.50;87.10
27413;DHT22;14871;52.702;5.230;2023-04-25T15:29:11;16.40;87.60
27413;DHT22;14871;52.702;5.230;2023-04-25T15:31:37;16.30;85.90
27413;DHT22;14871;52.702;5.230;2023-04-25T15:34:03;16.30;85.30
27413;DHT22;14871;52.702;5.230;2023-04-25T15:36:29;16.20;84.50
27413;DHT22;14871;52.702;5.230;2023-04-25T15:38:56;16.10;84.00
27413;DHT22;14871;52.702;5.230;2023-04-25T15:41:23;15.90;85.90
27413;DHT22;14871;52.702;5.230;2023-04-25T15:43:52;15.80;84.50
27413;DHT22;14871;52.702;5.230;2023-04-25T15:46:18;15.90;85.80